sensor_id;sensor_type;location;lat;lon;timestamp;temperature;humidity
11035;DHT22;5571;48.110;-1.706;2023-04-24T00:02:20;10.60;99.90
11035;DHT22;5571;48.110;-1.706;2023-04-24T00:04:47;10.60;99.90
11035;DHT22;5571;48.110;-1.706;2023-04-24T00:07:14;10.60;99.90
11035;DHT22;5571;48.110;-1.706;2023-04-24T00:09:42;10.60;99.90
11035;DHT22;5571;48.110;-1.706;2023-04-24T00:12:09;10.60;99.90
11035;DHT22;5571;48.110;-1.706;2023-04-24T00:14:35;10.50;99.90
11035;DHT22;5571;48.110;-1.706;2023-04-24T00:17:01;10.50;99.90
11035;DHT22;5571;48.110;-1.706;2023-04-24T00:19:28;10.50;99.90
11035;DHT22;5571;48.110;-1.706;2023-04-24T00:21:54;10.50;99.90
11035;DHT22;5571;48.110;-1.706;2023-04-24T00:24:20;10.50;99.90
11035;DHT22;5571;48.110;-1.706;2023-04-24T00:26:46;10.50;99.90
11035;DHT22;5571;48.110;-1.706;2023-04-24T00:29:12;10.40;99.90
11035;DHT22;5571;48.110;-1.706;2023-04-24T00:31:38;10.40;99.90
11035;DHT22;5571;48.110;-1.706;2023-04-24T00:34:04;10.40;99.90
11035;DHT22;5571;48.110;-1.706;2023-04-24T00:36:30;10.30;99.90
11035;DHT22;5571;48.110;-1.706;2023-04-24T00:38:57;10.30;99.90
11035;DHT22;5571;48.110;-1.706;2023-04-24T00:41:25;10.30;99.90
11035;DHT22;5571;48.110;-1.706;2023-04-24T00:43:52;10.30;99.90
11035;DHT22;5571;48.110;-1.706;2023-04-24T00:46:17;10.30;99.90
11035;DHT22;5571;48.110;-1.706;2023-04-24T00:48:43;10.30;99.90
11035;DHT22;5571;48.110;-1.706;2023-04-24T00:51:09;10.30;99.90
11035;DHT22;5571;48.110;-1.706;2023-04-24T00:53:35;10.30;99.90
11035;DHT22;5571;48.110;-1.706;2023-04-24T00:56:02;10.30;99.90
11035;DHT22;5571;48.110;-1.706;2023-04-24T00:58:28;10.30;99.90
11035;DHT22;5571;48.110;-1.706;2023-04-24T01:00:54;10.30;99.90
11035;DHT22;5571;48.110;-1.706;2023-04-24T01:03:22;10.20;99.90
11035;DHT22;5571;48.110;-1.706;2023-04-24T01:05:49;10.30;99.90
11035;DHT22;5571;48.110;-1.706;2023-04-24T01:08:16;10.30;99.90
11035;DHT22;5571;48.110;-1.706;2023-04-24T01:10:42;10.30;99.90
11035;DHT22;5571;48.110;-1.706;2023-04-24T01:13:09;10.30;99.90
11035;DHT22;5571;48.110;-1.706;2023-04-24T01:15:35;10.30;99.90
11035;DHT22;5571;48.110;-1.706;2023-04-24T01:18:00;10.20;99.90
11035;DHT22;5571;48.110;-1.706;2023-04-24T01:20:27;10.20;99.90
11035;DHT22;5571;48.110;-1.706;2023-04-24T01:22:54;10.20;99.90
11035;DHT22;5571;48.110;-1.706;2023-04-24T01:25:22;10.20;99.90
11035;DHT22;5571;48.110;-1.706;2023-04-24T01:27:47;10.20;99.90
11035;DHT22;5571;48.110;-1.706;2023-04-24T01:30:13;10.20;99.90
11035;DHT22;5571;48.110;-1.706;2023-04-24T01:32:40;10.30;99.90
11035;DHT22;5571;48.110;-1.706;2023-04-24T01:35:07;10.20;99.90
11035;DHT22;5571;48.110;-1.706;2023-04-24T01:37:33;10.20;99.90
11035;DHT22;5571;48.110;-1.706;2023-04-24T01:39:59;10.20;99.90
11035;DHT22;5571;48.110;-1.706;2023-04-24T01:42:25;10.30;99.90
11035;DHT22;5571;48.110;-1.706;2023-04-24T01:44:51;10.20;99.90
11035;DHT22;5571;48.110;-1.706;2023-04-24T01:47:17;10.20;99.90
11035;DHT22;5571;48.110;-1.706;2023-04-24T01:49:42;10.20;99.90
11035;DHT22;5571;48.110;-1.706;2023-04-24T01:52:08;10.20;99.90
11035;DHT22;5571;48.110;-1.706;2023-04-24T01:54:33;10.20;99.90
11035;DHT22;5571;48.110;-1.706;2023-04-24T01:56:59;10.20;99.90
11035;DHT22;5571;48.110;-1.706;2023-04-24T01:59:28;10.20;99.90
11035;DHT22;5571;48.110;-1.706;2023-04-24T02:01:53;10.20;99.90
11035;DHT22;5571;48.110;-1.706;2023-04-24T02:04:19;10.10;99.90
11035;DHT22;5571;48.110;-1.706;2023-04-24T02:06:45;10.10;99.90
11035;DHT22;5571;48.110;-1.706;2023-04-24T02:09:10;10.10;99.90
11035;DHT22;5571;48.110;-1.706;2023-04-24T02:11:36;10.10;99.90
11035;DHT22;5571;48.110;-1.706;2023-04-24T02:14:02;10.10;99.90
11035;DHT22;5571;48.110;-1.706;2023-04-24T02:16:28;10.10;99.90
11035;DHT22;5571;48.110;-1.706;2023-04-24T02:18:58;10.10;99.90
11035;DHT22;5571;48.110;-1.706;2023-04-24T02:21:23;10.10;99.90
11035;DHT22;5571;48.110;-1.706;2023-04-24T02:23:49;10.10;99.90
11035;DHT22;5571;48.110;-1.706;2023-04-24T02:26:15;10.10;99.90
11035;DHT22;5571;48.110;-1.706;2023-04-24T02:28:40;10.10;99.90
11035;DHT22;5571;48.110;-1.706;2023-04-24T02:31:06;10.10;99.90
11035;DHT22;5571;48.110;-1.706;2023-04-24T02:33:32;10.10;99.90
11035;DHT22;5571;48.110;-1.706;2023-04-24T02:35:57;10.10;99.90
11035;DHT22;5571;48.110;-1.706;2023-04-24T02:38:23;10.10;99.90
11035;DHT22;5571;48.110;-1.706;2023-04-24T02:40:48;9.90;99.90
11035;DHT22;5571;48.110;-1.706;2023-04-24T02:43:14;9.90;99.90
11035;DHT22;5571;48.110;-1.706;2023-04-24T02:45:40;9.90;99.90
11035;DHT22;5571;48.110;-1.706;2023-04-24T02:48:05;9.90;99.90
11035;DHT22;5571;48.110;-1.706;2023-04-24T02:50:31;9.90;99.90
11035;DHT22;5571;48.110;-1.706;2023-04-24T02:52:57;9.90;99.90
11035;DHT22;5571;48.110;-1.706;2023-04-24T02:55:23;9.90;99.90
11035;DHT22;5571;48.110;-1.706;2023-04-24T02:57:48;9.90;99.90
11035;DHT22;5571;48.110;-1.706;2023-04-24T03:00:14;9.90;99.90
11035;DHT22;5571;48.110;-1.706;2023-04-24T03:02:40;10.00;99.90
11035;DHT22;5571;48.110;-1.706;2023-04-24T03:05:05;10.00;99.90
11035;DHT22;5571;48.110;-1.706;2023-04-24T03:07:31;10.00;99.90
11035;DHT22;5571;48.110;-1.706;2023-04-24T03:09:57;10.00;99.90
11035;DHT22;5571;48.110;-1.706;2023-04-24T03:12:23;10.10;99.90
11035;DHT22;5571;48.110;-1.706;2023-04-24T03:14:49;10.10;99.90
11035;DHT22;5571;48.110;-1.706;2023-04-24T03:17:15;10.10;99.90
11035;DHT22;5571;48.110;-1.706;2023-04-24T03:19:40;10.10;99.90
11035;DHT22;5571;48.110;-1.706;2023-04-24T03:22:06;10.10;99.90
11035;DHT22;5571;48.110;-1.706;2023-04-24T03:24:34;10.20;99.90
11035;DHT22;5571;48.110;-1.706;2023-04-24T03:26:59;10.20;99.90
11035;DHT22;5571;48.110;-1.706;2023-04-24T03:29:25;10.20;99.90
11035;DHT22;5571;48.110;-1.706;2023-04-24T03:31:51;10.20;99.90
11035;DHT22;5571;48.110;-1.706;2023-04-24T03:34:16;10.10;99.90
11035;DHT22;5571;48.110;-1.706;2023-04-24T03:36:42;10.10;99.90
11035;DHT22;5571;48.110;-1.706;2023-04-24T03:39:08;10.10;99.90
11035;DHT22;5571;48.110;-1.706;2023-04-24T03:41:33;10.10;99.90
11035;DHT22;5571;48.110;-1.706;2023-04-24T03:43:59;10.10;99.90
11035;DHT22;5571;48.110;-1.706;2023-04-24T03:46:25;10.10;99.90
11035;DHT22;5571;48.110;-1.706;2023-04-24T03:48:51;10.00;99.90
11035;DHT22;5571;48.110;-1.706;2023-04-24T03:51:16;10.00;99.90
11035;DHT22;5571;48.110;-1.706;2023-04-24T03:53:42;10.00;99.90
11035;DHT22;5571;48.110;-1.706;2023-04-24T03:56:07;10.00;99.90
11035;DHT22;5571;48.110;-1.706;2023-04-24T03:58:33;9.90;99.90
11035;DHT22;5571;48.110;-1.706;2023-04-24T04:00:59;9.90;99.90
11035;DHT22;5571;48.110;-1.706;2023-04-24T04:03:25;10.00;99.90
11035;DHT22;5571;48.110;-1.706;2023-04-24T04:05:51;9.90;99.90
11035;DHT22;5571;48.110;-1.706;2023-04-24T04:08:17;9.90;99.90
11035;DHT22;5571;48.110;-1.706;2023-04-24T04:10:42;9.90;99.90
11035;DHT22;5571;48.110;-1.706;2023-04-24T04:13:08;9.90;99.90
11035;DHT22;5571;48.110;-1.706;2023-04-24T04:15:33;9.90;99.90
11035;DHT22;5571;48.110;-1.706;2023-04-24T04:17:59;9.90;99.90
11035;DHT22;5571;48.110;-1.706;2023-04-24T04:20:25;9.90;99.90
11035;DHT22;5571;48.110;-1.706;2023-04-24T04:22:50;9.90;99.90
11035;DHT22;5571;48.110;-1.706;2023-04-24T04:25:16;9.90;99.90
11035;DHT22;5571;48.110;-1.706;2023-04-24T04:27:45;9.90;99.90
11035;DHT22;5571;48.110;-1.706;2023-04-24T04:30:11;9.90;99.90
11035;DHT22;5571;48.110;-1.706;2023-04-24T04:32:36;9.90;99.90
11035;DHT22;5571;48.110;-1.706;2023-04-24T04:35:03;9.90;99.90
11035;DHT22;5571;48.110;-1.706;2023-04-24T04:37:31;9.90;99.90
11035;DHT22;5571;48.110;-1.706;2023-04-24T04:39:57;9.90;99.90
11035;DHT22;5571;48.110;-1.706;2023-04-24T04:42:24;9.90;99.90
11035;DHT22;5571;48.110;-1.706;2023-04-24T04:44:50;9.90;99.90
11035;DHT22;5571;48.110;-1.706;2023-04-24T04:47:16;9.90;99.90
11035;DHT22;5571;48.110;-1.706;2023-04-24T04:49:43;9.90;99.90
11035;DHT22;5571;48.110;-1.706;2023-04-24T04:52:09;9.90;99.90
11035;DHT22;5571;48.110;-1.706;2023-04-24T04:54:35;9.90;99.90
11035;DHT22;5571;48.110;-1.706;2023-04-24T04:57:00;9.90;99.90
11035;DHT22;5571;48.110;-1.706;2023-04-24T04:59:27;10.00;99.90
11035;DHT22;5571;48.110;-1.706;2023-04-24T05:01:52;10.00;99.90
11035;DHT22;5571;48.110;-1.706;2023-04-24T05:04:18;9.90;99.90
11035;DHT22;5571;48.110;-1.706;2023-04-24T05:06:44;9.90;99.90
11035;DHT22;5571;48.110;-1.706;2023-04-24T05:09:10;9.80;99.90
11035;DHT22;5571;48.110;-1.706;2023-04-24T05:11:36;9.90;99.90
11035;DHT22;5571;48.110;-1.706;2023-04-24T05:14:01;9.80;99.90
11035;DHT22;5571;48.110;-1.706;2023-04-24T05:16:27;9.80;99.90
11035;DHT22;5571;48.110;-1.706;2023-04-24T05:18:54;9.80;99.90
11035;DHT22;5571;48.110;-1.706;2023-04-24T05:21:20;9.90;99.90
11035;DHT22;5571;48.110;-1.706;2023-04-24T05:23:45;9.90;99.90
11035;DHT22;5571;48.110;-1.706;2023-04-24T05:26:11;9.80;99.90
11035;DHT22;5571;48.110;-1.706;2023-04-24T05:28:36;9.90;99.90
11035;DHT22;5571;48.110;-1.706;2023-04-24T05:31:03;9.90;99.90
11035;DHT22;5571;48.110;-1.706;2023-04-24T05:33:28;9.80;99.90
11035;DHT22;5571;48.110;-1.706;2023-04-24T05:35:54;9.80;99.90
11035;DHT22;5571;48.110;-1.706;2023-04-24T05:38:20;9.80;99.90
11035;DHT22;5571;48.110;-1.706;2023-04-24T05:40:46;9.70;99.90
11035;DHT22;5571;48.110;-1.706;2023-04-24T05:43:12;9.70;99.90
11035;DHT22;5571;48.110;-1.706;2023-04-24T05:45:38;9.70;99.90
11035;DHT22;5571;48.110;-1.706;2023-04-24T05:48:04;9.70;99.90
11035;DHT22;5571;48.110;-1.706;2023-04-24T05:50:30;9.70;99.90
11035;DHT22;5571;48.110;-1.706;2023-04-24T05:52:55;9.60;99.90
11035;DHT22;5571;48.110;-1.706;2023-04-24T05:55:24;9.60;99.90
11035;DHT22;5571;48.110;-1.706;2023-04-24T05:57:50;9.60;99.90
11035;DHT22;5571;48.110;-1.706;2023-04-24T06:00:16;9.60;99.90
11035;DHT22;5571;48.110;-1.706;2023-04-24T06:02:43;9.70;99.90
11035;DHT22;5571;48.110;-1.706;2023-04-24T06:05:08;9.70;99.90
11035;DHT22;5571;48.110;-1.706;2023-04-24T06:07:35;9.60;99.90
11035;DHT22;5571;48.110;-1.706;2023-04-24T06:10:00;9.60;99.90
11035;DHT22;5571;48.110;-1.706;2023-04-24T06:12:26;9.60;99.90
11035;DHT22;5571;48.110;-1.706;2023-04-24T06:14:52;9.60;99.90
11035;DHT22;5571;48.110;-1.706;2023-04-24T06:17:19;9.60;99.90
11035;DHT22;5571;48.110;-1.706;2023-04-24T06:19:45;9.50;99.90
11035;DHT22;5571;48.110;-1.706;2023-04-24T06:22:10;9.50;99.90
11035;DHT22;5571;48.110;-1.706;2023-04-24T06:24:36;9.60;99.90
11035;DHT22;5571;48.110;-1.706;2023-04-24T06:27:02;9.60;99.90
11035;DHT22;5571;48.110;-1.706;2023-04-24T06:29:28;9.70;99.90
11035;DHT22;5571;48.110;-1.706;2023-04-24T06:31:53;9.80;99.90
11035;DHT22;5571;48.110;-1.706;2023-04-24T06:34:19;9.90;99.90
11035;DHT22;5571;48.110;-1.706;2023-04-24T06:36:46;10.00;99.90
11035;DHT22;5571;48.110;-1.706;2023-04-24T06:39:11;10.10;99.90
11035;DHT22;5571;48.110;-1.706;2023-04-24T06:41:37;10.10;99.90
11035;DHT22;5571;48.110;-1.706;2023-04-24T06:44:03;10.20;99.90
11035;DHT22;5571;48.110;-1.706;2023-04-24T06:46:28;10.20;99.90
11035;DHT22;5571;48.110;-1.706;2023-04-24T06:48:55;10.30;99.90
11035;DHT22;5571;48.110;-1.706;2023-04-24T06:51:24;10.40;99.90
11035;DHT22;5571;48.110;-1.706;2023-04-24T06:53:50;10.40;99.90
11035;DHT22;5571;48.110;-1.706;2023-04-24T06:56:16;10.50;99.90
11035;DHT22;5571;48.110;-1.706;2023-04-24T06:58:42;10.50;99.90
11035;DHT22;5571;48.110;-1.706;2023-04-24T07:01:09;10.50;99.90
11035;DHT22;5571;48.110;-1.706;2023-04-24T07:03:35;10.70;99.90
11035;DHT22;5571;48.110;-1.706;2023-04-24T07:06:00;10.70;99.90
11035;DHT22;5571;48.110;-1.706;2023-04-24T07:08:26;10.80;99.90
11035;DHT22;5571;48.110;-1.706;2023-04-24T07:10:52;10.80;99.90
11035;DHT22;5571;48.110;-1.706;2023-04-24T07:13:17;10.80;99.90
11035;DHT22;5571;48.110;-1.706;2023-04-24T07:15:43;10.80;99.90
11035;DHT22;5571;48.110;-1.706;2023-04-24T07:18:09;10.90;99.90
11035;DHT22;5571;48.110;-1.706;2023-04-24T07:20:35;11.00;99.90
11035;DHT22;5571;48.110;-1.706;2023-04-24T07:23:01;11.00;99.90
11035;DHT22;5571;48.110;-1.706;2023-04-24T07:25:27;10.90;99.90
11035;DHT22;5571;48.110;-1.706;2023-04-24T07:27:54;11.00;99.90
11035;DHT22;5571;48.110;-1.706;2023-04-24T07:30:20;11.00;99.90
11035;DHT22;5571;48.110;-1.706;2023-04-24T07:32:45;11.00;99.90
11035;DHT22;5571;48.110;-1.706;2023-04-24T07:35:11;11.10;99.90
11035;DHT22;5571;48.110;-1.706;2023-04-24T07:37:37;11.20;99.90
11035;DHT22;5571;48.110;-1.706;2023-04-24T07:40:02;11.20;99.90
11035;DHT22;5571;48.110;-1.706;2023-04-24T07:42:29;11.20;99.90
11035;DHT22;5571;48.110;-1.706;2023-04-24T07:44:56;11.20;99.90
11035;DHT22;5571;48.110;-1.706;2023-04-24T07:47:21;11.10;99.90
11035;DHT22;5571;48.110;-1.706;2023-04-24T07:49:47;11.10;99.90
11035;DHT22;5571;48.110;-1.706;2023-04-24T07:52:13;11.20;99.90
11035;DHT22;5571;48.110;-1.706;2023-04-24T07:54:38;11.20;99.90
11035;DHT22;5571;48.110;-1.706;2023-04-24T07:57:04;11.30;99.90
11035;DHT22;5571;48.110;-1.706;2023-04-24T07:59:32;11.50;99.90
11035;DHT22;5571;48.110;-1.706;2023-04-24T08:01:57;11.60;99.90
11035;DHT22;5571;48.110;-1.706;2023-04-24T08:04:23;11.70;99.90
11035;DHT22;5571;48.110;-1.706;2023-04-24T08:06:48;11.80;99.90
11035;DHT22;5571;48.110;-1.706;2023-04-24T08:09:14;11.70;99.90
11035;DHT22;5571;48.110;-1.706;2023-04-24T08:11:40;11.80;99.90
11035;DHT22;5571;48.110;-1.706;2023-04-24T08:14:05;11.80;99.90
11035;DHT22;5571;48.110;-1.706;2023-04-24T08:16:33;11.80;99.90
11035;DHT22;5571;48.110;-1.706;2023-04-24T08:18:58;11.90;99.90
11035;DHT22;5571;48.110;-1.706;2023-04-24T08:21:24;11.90;99.90
11035;DHT22;5571;48.110;-1.706;2023-04-24T08:23:52;12.00;99.90
11035;DHT22;5571;48.110;-1.706;2023-04-24T08:26:18;11.80;99.90
11035;DHT22;5571;48.110;-1.706;2023-04-24T08:28:44;11.80;99.90
11035;DHT22;5571;48.110;-1.706;2023-04-24T08:31:09;11.70;99.90
11035;DHT22;5571;48.110;-1.706;2023-04-24T08:33:35;11.80;99.90
11035;DHT22;5571;48.110;-1.706;2023-04-24T08:36:03;12.00;99.90
11035;DHT22;5571;48.110;-1.706;2023-04-24T08:38:29;11.90;99.90
11035;DHT22;5571;48.110;-1.706;2023-04-24T08:40:58;11.80;99.90
11035;DHT22;5571;48.110;-1.706;2023-04-24T08:43:24;11.80;99.90
11035;DHT22;5571;48.110;-1.706;2023-04-24T08:45:52;11.90;99.90
11035;DHT22;5571;48.110;-1.706;2023-04-24T08:48:18;12.00;99.90
11035;DHT22;5571;48.110;-1.706;2023-04-24T08:50:44;12.20;99.90
11035;DHT22;5571;48.110;-1.706;2023-04-24T08:53:10;12.40;99.90
11035;DHT22;5571;48.110;-1.706;2023-04-24T08:55:37;12.50;99.90
11035;DHT22;5571;48.110;-1.706;2023-04-24T08:58:03;12.60;99.90
11035;DHT22;5571;48.110;-1.706;2023-04-24T09:00:29;12.70;99.90
11035;DHT22;5571;48.110;-1.706;2023-04-24T09:02:56;12.80;99.90
11035;DHT22;5571;48.110;-1.706;2023-04-24T09:05:23;12.80;99.90
11035;DHT22;5571;48.110;-1.706;2023-04-24T09:07:56;12.70;99.90
11035;DHT22;5571;48.110;-1.706;2023-04-24T09:10:25;12.80;99.90
11035;DHT22;5571;48.110;-1.706;2023-04-24T09:12:51;12.90;99.90
11035;DHT22;5571;48.110;-1.706;2023-04-24T09:15:18;13.00;99.90
11035;DHT22;5571;48.110;-1.706;2023-04-24T09:17:46;13.00;99.90
11035;DHT22;5571;48.110;-1.706;2023-04-24T09:20:11;13.10;99.90
11035;DHT22;5571;48.110;-1.706;2023-04-24T09:22:37;13.00;99.90
11035;DHT22;5571;48.110;-1.706;2023-04-24T09:25:07;13.00;99.90
11035;DHT22;5571;48.110;-1.706;2023-04-24T09:27:35;12.80;99.90
11035;DHT22;5571;48.110;-1.706;2023-04-24T09:30:01;12.80;99.90
11035;DHT22;5571;48.110;-1.706;2023-04-24T09:32:28;12.70;99.90
11035;DHT22;5571;48.110;-1.706;2023-04-24T09:35:09;12.70;99.90
11035;DHT22;5571;48.110;-1.706;2023-04-24T09:37:40;12.70;99.90
11035;DHT22;5571;48.110;-1.706;2023-04-24T09:40:19;12.70;99.90
11035;DHT22;5571;48.110;-1.706;2023-04-24T09:42:55;12.60;99.90
11035;DHT22;5571;48.110;-1.706;2023-04-24T09:45:36;12.60;99.90
11035;DHT22;5571;48.110;-1.706;2023-04-24T09:48:02;12.60;99.90
11035;DHT22;5571;48.110;-1.706;2023-04-24T09:50:30;12.60;99.90
11035;DHT22;5571;48.110;-1.706;2023-04-24T09:53:02;12.60;99.90
11035;DHT22;5571;48.110;-1.706;2023-04-24T09:55:30;12.60;99.90
11035;DHT22;5571;48.110;-1.706;2023-04-24T09:58:00;12.70;99.90
11035;DHT22;5571;48.110;-1.706;2023-04-24T10:00:30;12.70;99.90
11035;DHT22;5571;48.110;-1.706;2023-04-24T10:03:03;12.80;99.90
11035;DHT22;5571;48.110;-1.706;2023-04-24T10:05:33;13.00;99.90
11035;DHT22;5571;48.110;-1.706;2023-04-24T10:08:08;13.20;99.90
11035;DHT22;5571;48.110;-1.706;2023-04-24T10:10:37;13.40;99.90
11035;DHT22;5571;48.110;-1.706;2023-04-24T10:13:04;13.60;99.90
11035;DHT22;5571;48.110;-1.706;2023-04-24T10:15:30;13.70;99.90
11035;DHT22;5571;48.110;-1.706;2023-04-24T10:17:58;13.70;99.90
11035;DHT22;5571;48.110;-1.706;2023-04-24T10:20:26;13.50;99.90
11035;DHT22;5571;48.110;-1.706;2023-04-24T10:22:53;13.30;99.90
11035;DHT22;5571;48.110;-1.706;2023-04-24T10:25:23;13.30;99.90
11035;DHT22;5571;48.110;-1.706;2023-04-24T10:27:50;13.30;99.90
11035;DHT22;5571;48.110;-1.706;2023-04-24T10:30:17;13.40;99.90
11035;DHT22;5571;48.110;-1.706;2023-04-24T10:32:43;13.40;99.90
11035;DHT22;5571;48.110;-1.706;2023-04-24T10:35:11;13.20;99.90
11035;DHT22;5571;48.110;-1.706;2023-04-24T10:38:01;13.20;99.90
11035;DHT22;5571;48.110;-1.706;2023-04-24T10:40:31;13.20;99.90
11035;DHT22;5571;48.110;-1.706;2023-04-24T10:42:58;13.20;99.90
11035;DHT22;5571;48.110;-1.706;2023-04-24T10:45:24;13.40;99.90
11035;DHT22;5571;48.110;-1.706;2023-04-24T10:48:00;13.50;99.90
11035;DHT22;5571;48.110;-1.706;2023-04-24T10:50:42;13.60;99.90
11035;DHT22;5571;48.110;-1.706;2023-04-24T10:53:19;13.60;99.90
11035;DHT22;5571;48.110;-1.706;2023-04-24T10:58:12;13.30;99.90
11035;DHT22;5571;48.110;-1.706;2023-04-24T11:00:40;13.30;99.90
11035;DHT22;5571;48.110;-1.706;2023-04-24T11:05:53;13.40;99.90
11035;DHT22;5571;48.110;-1.706;2023-04-24T11:08:42;13.50;99.90
11035;DHT22;5571;48.110;-1.706;2023-04-24T11:11:15;13.70;99.90
11035;DHT22;5571;48.110;-1.706;2023-04-24T11:21:33;13.80;99.90
11035;DHT22;5571;48.110;-1.706;2023-04-24T11:26:48;13.60;99.90
11035;DHT22;5571;48.110;-1.706;2023-04-24T11:29:13;13.50;99.90
11035;DHT22;5571;48.110;-1.706;2023-04-24T11:31:40;13.40;99.90
11035;DHT22;5571;48.110;-1.706;2023-04-24T11:34:12;13.40;99.90
11035;DHT22;5571;48.110;-1.706;2023-04-24T11:36:38;13.30;99.90
11035;DHT22;5571;48.110;-1.706;2023-04-24T11:39:04;13.50;99.90
11035;DHT22;5571;48.110;-1.706;2023-04-24T11:41:31;13.60;99.90
11035;DHT22;5571;48.110;-1.706;2023-04-24T11:43:57;13.80;99.90
11035;DHT22;5571;48.110;-1.706;2023-04-24T11:46:27;14.10;99.90
11035;DHT22;5571;48.110;-1.706;2023-04-24T11:48:53;14.30;99.90
11035;DHT22;5571;48.110;-1.706;2023-04-24T11:51:18;14.40;99.90
11035;DHT22;5571;48.110;-1.706;2023-04-24T11:53:44;14.30;99.90
11035;DHT22;5571;48.110;-1.706;2023-04-24T11:56:10;14.30;99.90
11035;DHT22;5571;48.110;-1.706;2023-04-24T11:58:40;14.30;99.90
11035;DHT22;5571;48.110;-1.706;2023-04-24T12:01:05;14.10;99.90
11035;DHT22;5571;48.110;-1.706;2023-04-24T12:03:31;14.00;99.90
11035;DHT22;5571;48.110;-1.706;2023-04-24T12:06:08;13.90;99.90
11035;DHT22;5571;48.110;-1.706;2023-04-24T12:08:34;13.80;99.90
11035;DHT22;5571;48.110;-1.706;2023-04-24T12:11:04;13.70;99.90
11035;DHT22;5571;48.110;-1.706;2023-04-24T12:13:30;13.80;99.90
11035;DHT22;5571;48.110;-1.706;2023-04-24T12:15:59;13.90;99.90
11035;DHT22;5571;48.110;-1.706;2023-04-24T12:18:26;14.30;99.90
11035;DHT22;5571;48.110;-1.706;2023-04-24T12:20:51;14.50;99.90
11035;DHT22;5571;48.110;-1.706;2023-04-24T12:23:36;14.70;99.90
11035;DHT22;5571;48.110;-1.706;2023-04-24T12:26:05;14.80;99.90
11035;DHT22;5571;48.110;-1.706;2023-04-24T12:28:38;14.80;99.90
11035;DHT22;5571;48.110;-1.706;2023-04-24T12:31:04;14.80;99.90
11035;DHT22;5571;48.110;-1.706;2023-04-24T12:33:35;14.80;99.90
11035;DHT22;5571;48.110;-1.706;2023-04-24T12:36:01;14.90;99.90
11035;DHT22;5571;48.110;-1.706;2023-04-24T12:38:28;14.80;99.90
11035;DHT22;5571;48.110;-1.706;2023-04-24T12:41:03;14.70;99.90
11035;DHT22;5571;48.110;-1.706;2023-04-24T12:43:29;14.70;99.90
11035;DHT22;5571;48.110;-1.706;2023-04-24T12:45:55;14.80;99.90
11035;DHT22;5571;48.110;-1.706;2023-04-24T12:48:21;14.70;99.90
11035;DHT22;5571;48.110;-1.706;2023-04-24T12:50:47;14.60;99.90
11035;DHT22;5571;48.110;-1.706;2023-04-24T12:53:13;14.50;99.90
11035;DHT22;5571;48.110;-1.706;2023-04-24T12:55:39;14.60;99.90
11035;DHT22;5571;48.110;-1.706;2023-04-24T12:58:05;14.60;99.90
11035;DHT22;5571;48.110;-1.706;2023-04-24T13:00:31;14.60;99.90
11035;DHT22;5571;48.110;-1.706;2023-04-24T13:02:57;14.70;99.90
11035;DHT22;5571;48.110;-1.706;2023-04-24T13:05:22;14.60;99.90
11035;DHT22;5571;48.110;-1.706;2023-04-24T13:07:48;14.80;99.90
11035;DHT22;5571;48.110;-1.706;2023-04-24T13:10:14;15.00;99.90
11035;DHT22;5571;48.110;-1.706;2023-04-24T13:12:39;15.20;99.90
11035;DHT22;5571;48.110;-1.706;2023-04-24T13:15:06;15.30;99.90
11035;DHT22;5571;48.110;-1.706;2023-04-24T13:17:32;15.70;99.90
11035;DHT22;5571;48.110;-1.706;2023-04-24T13:19:58;15.90;99.90
11035;DHT22;5571;48.110;-1.706;2023-04-24T13:22:24;16.10;99.90
11035;DHT22;5571;48.110;-1.706;2023-04-24T13:24:50;16.20;99.90
11035;DHT22;5571;48.110;-1.706;2023-04-24T13:27:16;16.40;99.90
11035;DHT22;5571;48.110;-1.706;2023-04-24T13:29:42;16.40;99.90
11035;DHT22;5571;48.110;-1.706;2023-04-24T13:32:08;15.90;99.90
11035;DHT22;5571;48.110;-1.706;2023-04-24T13:34:34;15.50;99.90
11035;DHT22;5571;48.110;-1.706;2023-04-24T13:37:03;15.50;99.90
11035;DHT22;5571;48.110;-1.706;2023-04-24T13:39:31;15.20;99.90
11035;DHT22;5571;48.110;-1.706;2023-04-24T13:41:58;15.20;99.90
11035;DHT22;5571;48.110;-1.706;2023-04-24T13:44:24;15.20;99.90
11035;DHT22;5571;48.110;-1.706;2023-04-24T13:46:53;15.30;99.90
11035;DHT22;5571;48.110;-1.706;2023-04-24T13:49:20;15.30;99.90
11035;DHT22;5571;48.110;-1.706;2023-04-24T13:51:46;15.20;99.90
11035;DHT22;5571;48.110;-1.706;2023-04-24T13:54:12;15.30;99.90
11035;DHT22;5571;48.110;-1.706;2023-04-24T13:56:39;15.30;99.90
11035;DHT22;5571;48.110;-1.706;2023-04-24T13:59:05;15.40;99.90
11035;DHT22;5571;48.110;-1.706;2023-04-24T14:01:31;15.30;99.90
11035;DHT22;5571;48.110;-1.706;2023-04-24T14:03:56;15.20;99.90
11035;DHT22;5571;48.110;-1.706;2023-04-24T14:06:22;15.10;99.90
11035;DHT22;5571;48.110;-1.706;2023-04-24T14:08:48;15.00;99.90
11035;DHT22;5571;48.110;-1.706;2023-04-24T14:11:14;14.90;99.90
11035;DHT22;5571;48.110;-1.706;2023-04-24T14:13:41;14.90;99.90
11035;DHT22;5571;48.110;-1.706;2023-04-24T14:16:07;14.90;99.90
11035;DHT22;5571;48.110;-1.706;2023-04-24T14:18:33;14.80;99.90
11035;DHT22;5571;48.110;-1.706;2023-04-24T14:20:59;14.70;99.90
11035;DHT22;5571;48.110;-1.706;2023-04-24T14:23:26;14.60;99.90
11035;DHT22;5571;48.110;-1.706;2023-04-24T14:25:52;14.60;99.90
11035;DHT22;5571;48.110;-1.706;2023-04-24T14:28:19;14.40;99.90
11035;DHT22;5571;48.110;-1.706;2023-04-24T14:30:46;14.30;99.90
11035;DHT22;5571;48.110;-1.706;2023-04-24T14:33:11;14.10;99.90
11035;DHT22;5571;48.110;-1.706;2023-04-24T14:35:38;13.90;99.90
11035;DHT22;5571;48.110;-1.706;2023-04-24T14:38:04;13.80;99.90
11035;DHT22;5571;48.110;-1.706;2023-04-24T14:40:29;13.80;99.90
11035;DHT22;5571;48.110;-1.706;2023-04-24T14:42:56;13.80;99.90
11035;DHT22;5571;48.110;-1.706;2023-04-24T14:45:23;13.80;99.90
11035;DHT22;5571;48.110;-1.706;2023-04-24T14:47:49;13.90;99.90
11035;DHT22;5571;48.110;-1.706;2023-04-24T14:50:14;13.90;99.90
11035;DHT22;5571;48.110;-1.706;2023-04-24T14:52:40;14.00;99.90
11035;DHT22;5571;48.110;-1.706;2023-04-24T14:55:06;14.00;99.90
11035;DHT22;5571;48.110;-1.706;2023-04-24T14:57:35;14.10;99.90
11035;DHT22;5571;48.110;-1.706;2023-04-24T15:00:02;14.00;99.90
11035;DHT22;5571;48.110;-1.706;2023-04-24T15:02:28;14.00;99.90
11035;DHT22;5571;48.110;-1.706;2023-04-24T15:04:54;13.90;99.90
11035;DHT22;5571;48.110;-1.706;2023-04-24T15:07:20;13.60;99.90
11035;DHT22;5571;48.110;-1.706;2023-04-24T15:09:45;13.40;99.90
11035;DHT22;5571;48.110;-1.706;2023-04-24T15:12:12;13.10;99.90
11035;DHT22;5571;48.110;-1.706;2023-04-24T15:14:38;12.90;99.90
11035;DHT22;5571;48.110;-1.706;2023-04-24T15:17:04;12.80;99.90
11035;DHT22;5571;48.110;-1.706;2023-04-24T15:19:30;12.80;99.90
11035;DHT22;5571;48.110;-1.706;2023-04-24T15:21:56;12.90;99.90
11035;DHT22;5571;48.110;-1.706;2023-04-24T15:24:22;13.20;99.90
11035;DHT22;5571;48.110;-1.706;2023-04-24T15:26:47;13.50;99.90
11035;DHT22;5571;48.110;-1.706;2023-04-24T15:29:13;13.80;99.90
11035;DHT22;5571;48.110;-1.706;2023-04-24T15:31:39;14.10;99.90
11035;DHT22;5571;48.110;-1.706;2023-04-24T15:34:05;14.40;99.90
11035;DHT22;5571;48.110;-1.706;2023-04-24T15:36:31;14.80;99.90
11035;DHT22;5571;48.110;-1.706;2023-04-24T15:38:57;15.00;99.90
11035;DHT22;5571;48.110;-1.706;2023-04-24T15:41:23;15.10;99.90
11035;DHT22;5571;48.110;-1.706;2023-04-24T15:43:49;15.30;99.90
11035;DHT22;5571;48.110;-1.706;2023-04-24T15:46:15;15.50;99.90